Time;durP1;ratioP1;P1;durP2;ratioP2;P2;SDS_P1;SDS_P2;PMS_P1;PMS_P2;Temp;Humidity;BMP_temperature;BMP_pressure;BME280_temperature;BME280_humidity;BME280_pressure;Samples;Min_cycle;Max_cycle;Signal;HPM_P1;HPM_P2
2024/01/18 00:01:32;;;;;;;2.30;1.10;;;;;;;10.84;100.00;95378.28;4258168;27;20638;-85
2024/01/18 00:03:37;;;;;;;2.60;1.13;;;;;;;10.84;100.00;95375.66;4258071;27;21289;-85
2024/01/18 00:05:40;;;;;;;1.93;1.07;;;;;;;10.83;100.00;95376.63;4237104;27;20643;-85
2024/01/18 00:07:43;;;;;;;2.50;1.17;;;;;;;10.81;100.00;95376.00;4240105;27;20606;-84
2024/01/18 00:09:48;;;;;;;1.67;1.00;;;;;;;10.81;100.00;95379.41;4221492;27;20657;-84
2024/01/18 00:11:51;;;;;;;1.87;1.00;;;;;;;10.79;100.00;95383.16;4239868;27;20629;-84
2024/01/18 00:13:54;;;;;;;1.73;0.90;;;;;;;10.78;100.00;95375.53;4253437;27;20707;-84
2024/01/18 00:15:57;;;;;;;1.80;0.87;;;;;;;10.76;100.00;95385.31;4241321;27;21056;-85
2024/01/18 00:17:59;;;;;;;2.07;1.07;;;;;;;10.75;100.00;95381.09;4237497;27;21204;-85
2024/01/18 00:20:03;;;;;;;1.60;1.00;;;;;;;10.75;100.00;95386.28;4238671;27;20669;-84
2024/01/18 00:22:09;;;;;;;1.80;1.00;;;;;;;10.76;100.00;95385.31;4254319;27;21076;-84
2024/01/18 00:24:12;;;;;;;2.10;1.00;;;;;;;10.75;100.00;95386.28;4254973;27;20682;-85
2024/01/18 00:26:16;;;;;;;2.13;1.00;;;;;;;10.77;100.00;95394.78;4255786;27;20612;-84
2024/01/18 00:28:19;;;;;;;1.87;0.70;;;;;;;10.78;100.00;95398.97;4239072;27;21001;-85
2024/01/18 00:30:22;;;;;;;2.23;1.17;;;;;;;10.75;100.00;95392.34;4235317;27;20664;-85
2024/01/18 00:32:25;;;;;;;3.93;0.90;;;;;;;10.76;100.00;95398.34;4221782;27;20626;-85
2024/01/18 00:34:29;;;;;;;1.60;1.00;;;;;;;10.78;100.00;95401.59;4244424;27;20628;-85
2024/01/18 00:36:32;;;;;;;1.77;0.90;;;;;;;10.78;100.00;95398.97;4257092;27;21228;-85
2024/01/18 00:38:34;;;;;;;2.30;0.80;;;;;;;10.80;100.00;95400.44;4252539;27;20641;-85
2024/01/18 00:40:37;;;;;;;2.07;1.00;;;;;;;10.79;100.00;95406.63;4240699;27;21024;-85
2024/01/18 00:42:41;;;;;;;2.03;1.00;;;;;;;10.79;100.00;95400.63;4223899;27;20618;-84
2024/01/18 00:44:45;;;;;;;2.40;1.00;;;;;;;10.79;100.00;95404.03;4253462;27;20659;-85
2024/01/18 00:46:48;;;;;;;1.30;0.70;;;;;;;10.80;100.00;95399.66;4256574;27;20616;-85
2024/01/18 00:48:51;;;;;;;1.60;1.00;;;;;;;10.79;100.00;95396.19;4254975;27;20733;-85
2024/01/18 00:50:54;;;;;;;2.23;1.07;;;;;;;10.79;100.00;95398.00;4248060;27;21356;-84
2024/01/18 00:52:56;;;;;;;2.30;1.00;;;;;;;10.75;100.00;95394.13;4237801;27;21197;-85
2024/01/18 00:54:59;;;;;;;2.40;1.07;;;;;;;10.75;100.00;95402.78;4252699;27;20621;-85
2024/01/18 00:57:03;;;;;;;1.70;0.87;;;;;;;10.77;100.00;95402.59;4230191;27;20662;-85
2024/01/18 00:59:07;;;;;;;1.80;0.70;;;;;;;10.78;100.00;95401.59;4226699;27;20639;-85
2024/01/18 01:01:10;;;;;;;2.00;1.00;;;;;;;10.76;100.00;95398.34;4251060;27;20625;-84
2024/01/18 01:03:13;;;;;;;1.50;0.80;;;;;;;10.72;100.00;95400.50;4226983;27;20635;-85
2024/01/18 01:05:16;;;;;;;1.97;0.90;;;;;;;10.71;100.00;95395.47;4226682;27;20764;-85
2024/01/18 01:07:19;;;;;;;1.87;0.87;;;;;;;10.67;100.00;95408.00;4229180;27;20678;-85
2024/01/18 01:09:22;;;;;;;1.77;0.90;;;;;;;10.66;100.00;95403.78;4245881;27;20696;-85
2024/01/18 01:11:26;;;;;;;2.10;0.73;;;;;;;10.69;100.00;95400.00;4255238;27;20616;-85
2024/01/18 01:13:29;;;;;;;1.43;0.67;;;;;;;10.66;100.00;95408.16;4257105;27;21315;-85
2024/01/18 01:15:33;;;;;;;1.53;0.90;;;;;;;10.66;100.00;95398.56;4216543;27;20621;-85
2024/01/18 01:17:36;;;;;;;1.47;1.00;;;;;;;10.66;100.00;95408.16;4251592;27;20629;-85
2024/01/18 01:19:38;;;;;;;1.77;0.97;;;;;;;10.62;100.00;95417.34;4255729;27;21110;-84
2024/01/18 01:21:42;;;;;;;1.80;1.00;;;;;;;10.60;100.00;95409.69;4230469;27;21218;-85
2024/01/18 01:23:48;;;;;;;1.58;0.80;;;;;;;10.62;100.00;95409.50;4251865;27;21827;-84
2024/01/18 01:25:52;;;;;;;1.60;0.90;;;;;;;10.65;100.00;95406.56;4235486;27;20316;-85
2024/01/18 01:27:55;;;;;;;1.63;0.83;;;;;;;10.68;100.00;95411.44;4248006;27;20616;-84
2024/01/18 01:29:58;;;;;;;1.90;1.10;;;;;;;10.70;100.00;95404.25;4228721;27;20706;-85
2024/01/18 01:32:04;;;;;;;1.80;0.87;;;;;;;10.71;100.00;95414.50;4238071;27;21208;-85
2024/01/18 01:34:07;;;;;;;1.40;0.80;;;;;;;10.70;100.00;95407.66;4249276;27;20601;-85
2024/01/18 01:36:10;;;;;;;1.67;0.83;;;;;;;10.72;100.00;95417.91;4233797;27;20630;-85
2024/01/18 01:38:13;;;;;;;1.50;0.70;;;;;;;10.71;100.00;95413.72;4246453;27;21319;-85
2024/01/18 01:40:17;;;;;;;2.20;0.80;;;;;;;10.72;100.00;95421.34;4251485;27;20604;-85
2024/01/18 01:42:20;;;;;;;1.50;0.80;;;;;;;10.71;100.00;95416.31;4251138;27;20615;-85
2024/01/18 01:44:23;;;;;;;2.43;0.80;;;;;;;10.73;100.00;95420.34;4234165;27;20621;-84
2024/01/18 01:46:27;;;;;;;1.43;0.90;;;;;;;10.68;100.00;95427.88;4239357;27;20675;-85
2024/01/18 01:48:31;;;;;;;2.70;0.90;;;;;;;10.70;100.00;95422.50;4232236;27;21276;-85
2024/01/18 01:50:35;;;;;;;1.83;0.97;;;;;;;10.69;100.00;95426.06;4235309;27;20666;-85
2024/01/18 01:52:40;;;;;;;2.07;1.00;;;;;;;10.72;100.00;95425.72;4240961;27;20629;-85
2024/01/18 01:54:45;;;;;;;2.70;0.90;;;;;;;10.74;100.00;95436.81;4256187;27;20715;-84
2024/01/18 01:56:50;;;;;;;4.03;0.90;;;;;;;10.76;100.00;95442.66;4229896;27;20620;-84
2024/01/18 01:58:53;;;;;;;1.60;0.80;;;;;;;10.80;100.00;95448.16;4222860;28;20616;-85
2024/01/18 02:00:56;;;;;;;1.57;0.90;;;;;;;10.84;100.00;95444.25;4249507;27;20625;-85
2024/01/18 02:02:59;;;;;;;2.20;1.08;;;;;;;10.88;100.00;95439.50;4233000;27;21182;-85
2024/01/18 02:05:04;;;;;;;1.87;1.10;;;;;;;10.91;100.00;95439.16;4251689;27;20741;-85
2024/01/18 02:07:10;;;;;;;1.90;0.87;;;;;;;10.90;100.00;95433.13;4258767;27;21351;-85
2024/01/18 02:09:13;;;;;;;1.77;0.97;;;;;;;10.91;100.00;95429.53;4238758;27;20623;-85
2024/01/18 02:11:16;;;;;;;1.90;1.10;;;;;;;10.93;100.00;95429.34;4225059;27;20671;-84
2024/01/18 02:13:19;;;;;;;1.90;1.00;;;;;;;10.96;100.00;95437.66;4236730;27;20636;-85
2024/01/18 02:15:22;;;;;;;1.80;0.70;;;;;;;10.96;100.00;95429.84;4250999;27;20629;-85
2024/01/18 02:17:26;;;;;;;1.77;0.97;;;;;;;10.99;100.00;95431.28;4219477;27;20627;-85
2024/01/18 02:19:29;;;;;;;1.97;0.90;;;;;;;11.01;100.00;95430.13;4254414;27;20609;-85
2024/01/18 02:21:34;;;;;;;2.10;0.77;;;;;;;11.04;100.00;95435.00;4218319;27;20641;-85
2024/01/18 02:23:38;;;;;;;2.70;1.00;;;;;;;11.05;100.00;95427.97;4252681;27;20645;-85
2024/01/18 02:25:43;;;;;;;2.60;1.00;;;;;;;11.04;100.00;95429.00;4252262;27;20628;-85
2024/01/18 02:27:46;;;;;;;2.00;1.00;;;;;;;11.06;100.00;95432.22;4237514;27;21185;-85
2024/01/18 02:29:50;;;;;;;1.50;0.70;;;;;;;11.03;100.00;95428.16;4235497;27;20625;-85
2024/01/18 02:31:52;;;;;;;2.37;1.00;;;;;;;11.05;99.80;95418.38;4251961;27;20627;-85
2024/01/18 02:33:55;;;;;;;5.10;1.03;;;;;;;11.04;100.00;95424.56;4255394;27;20659;-84
2024/01/18 02:35:58;;;;;;;1.97;0.90;;;;;;;11.06;99.98;95427.81;4234755;27;20617;-85
2024/01/18 02:38:00;;;;;;;1.70;0.90;;;;;;;11.08;100.00;95425.88;4237532;27;20614;-85
2024/01/18 02:40:04;;;;;;;2.33;0.90;;;;;;;11.10;100.00;95428.28;4251939;27;25575;-84
2024/01/18 02:42:09;;;;;;;1.77;0.90;;;;;;;11.12;100.00;95429.72;4234654;27;20688;-85
2024/01/18 02:44:11;;;;;;;1.70;0.90;;;;;;;11.07;100.00;95441.69;4217386;28;20985;-85
2024/01/18 02:46:16;;;;;;;2.47;1.03;;;;;;;11.06;99.84;95438.25;4238491;27;20714;-85
2024/01/18 02:48:19;;;;;;;2.47;0.97;;;;;;;11.08;100.00;95446.72;4251074;27;20615;-85
2024/01/18 02:50:23;;;;;;;2.90;1.10;;;;;;;11.07;100.00;95460.75;4239133;27;21028;-84
2024/01/18 02:52:26;;;;;;;3.73;1.10;;;;;;;11.06;100.00;95445.25;4228062;27;21073;-82
2024/01/18 02:54:29;;;;;;;2.17;0.97;;;;;;;11.04;100.00;95448.03;4234321;27;20658;-83
2024/01/18 02:56:32;;;;;;;1.90;1.00;;;;;;;11.01;99.98;95439.75;4250755;27;20716;-82
2024/01/18 02:58:37;;;;;;;2.00;1.20;;;;;;;10.96;100.00;95437.66;4232248;27;20655;-82
2024/01/18 03:00:40;;;;;;;2.83;1.13;;;;;;;10.98;100.00;95440.91;4223374;28;20623;-81
2024/01/18 03:02:43;;;;;;;5.53;1.30;;;;;;;10.95;100.00;95430.81;4219357;28;20656;-82
2024/01/18 03:04:46;;;;;;;1.57;0.83;;;;;;;10.94;100.00;95438.81;4254136;27;20723;-82
2024/01/18 03:06:49;;;;;;;2.27;1.10;;;;;;;10.93;100.00;95432.78;4225480;28;20653;-82
2024/01/18 03:08:53;;;;;;;2.20;1.30;;;;;;;10.91;100.00;95439.16;4249797;27;20637;-82
2024/01/18 03:10:55;;;;;;;2.57;1.40;;;;;;;10.87;100.00;95433.47;4237563;27;20706;-82
2024/01/18 03:12:58;;;;;;;3.37;1.70;;;;;;;10.84;100.00;95444.25;4232831;27;21210;-82
2024/01/18 03:15:02;;;;;;;2.60;1.80;;;;;;;10.86;100.00;95459.72;4254136;27;20714;-82
2024/01/18 03:17:06;;;;;;;2.20;1.50;;;;;;;10.86;100.00;95450.09;4239436;27;20629;-81
2024/01/18 03:19:09;;;;;;;4.20;1.40;;;;;;;10.87;100.00;95453.53;4251240;27;20641;-82
2024/01/18 03:21:12;;;;;;;3.67;2.37;;;;;;;10.85;100.00;95451.09;4240097;27;21335;-82
2024/01/18 03:23:16;;;;;;;4.40;3.50;;;;;;;10.83;100.00;95453.03;4229754;27;21200;-82
2024/01/18 03:25:20;;;;;;;4.83;3.40;;;;;;;10.80;100.00;95454.38;4234178;27;20618;-81
2024/01/18 03:27:22;;;;;;;6.20;4.60;;;;;;;10.79;100.00;95456.16;4221028;28;20654;-82
2024/01/18 03:29:25;;;;;;;5.50;4.07;;;;;;;10.73;100.00;95462.06;4224425;28;20634;-82
2024/01/18 03:31:29;;;;;;;7.50;5.90;;;;;;;10.70;100.00;95474.63;4250916;27;20729;-82
2024/01/18 03:33:32;;;;;;;5.90;4.87;;;;;;;10.67;100.00;95467.16;4233558;27;21190;-82
2024/01/18 03:35:35;;;;;;;9.13;7.13;;;;;;;10.61;100.00;95475.63;4253361;27;20629;-83
2024/01/18 03:37:38;;;;;;;9.67;7.87;;;;;;;10.53;100.00;95465.25;4220084;28;20621;-82
2024/01/18 03:39:40;;;;;;;9.90;7.47;;;;;;;10.43;100.00;95438.56;4227951;27;20660;-82
2024/01/18 03:41:43;;;;;;;10.30;7.60;;;;;;;10.32;100.00;95451.16;4233898;27;20624;-83
2024/01/18 03:43:45;;;;;;;9.17;7.80;;;;;;;10.26;100.00;95452.63;4237512;27;20636;-82
2024/01/18 03:45:49;;;;;;;10.20;8.50;;;;;;;10.24;100.00;95444.19;4250993;27;20608;-82
2024/01/18 03:47:53;;;;;;;9.53;7.83;;;;;;;10.21;100.00;95444.53;4250831;27;20669;-82
2024/01/18 03:49:56;;;;;;;9.20;7.47;;;;;;;10.20;100.00;95432.47;4239101;27;20621;-81
2024/01/18 03:52:00;;;;;;;11.10;7.60;;;;;;;10.20;100.00;95442.09;4239500;27;20757;-82
2024/01/18 03:54:03;;;;;;;10.33;8.00;;;;;;;10.18;100.00;95449.22;4238304;27;20650;-83
2024/01/18 03:56:05;;;;;;;9.47;7.87;;;;;;;10.17;100.00;95447.63;4224819;27;20625;-82
2024/01/18 03:58:09;;;;;;;9.60;7.40;;;;;;;10.10;100.00;95451.88;4255036;27;21228;-82
2024/01/18 04:00:13;;;;;;;10.80;6.90;;;;;;;10.02;100.00;95450.09;4253185;27;20711;-82
2024/01/18 04:02:15;;;;;;;9.23;6.10;;;;;;;9.99;100.00;95457.44;4254259;27;20638;-82
2024/01/18 04:04:21;;;;;;;8.70;7.70;;;;;;;9.94;100.00;95454.53;4239571;27;20757;-81
2024/01/18 04:06:24;;;;;;;6.50;5.67;;;;;;;9.81;100.00;95450.75;4240145;27;21292;-82
2024/01/18 04:08:28;;;;;;;7.13;6.03;;;;;;;9.76;99.83;95453.84;4234562;27;21139;-82
2024/01/18 04:10:31;;;;;;;7.33;5.93;;;;;;;9.75;100.00;95467.03;4253248;27;20643;-81
2024/01/18 04:12:35;;;;;;;7.83;6.20;;;;;;;9.71;99.82;95453.53;4236009;27;20662;-81
2024/01/18 04:14:40;;;;;;;5.50;4.90;;;;;;;9.59;99.49;95462.66;4255482;27;20623;-81
2024/01/18 04:16:43;;;;;;;7.10;5.70;;;;;;;9.57;99.77;95450.78;4256822;27;20647;-82
2024/01/18 04:18:46;;;;;;;6.30;5.10;;;;;;;9.55;99.67;95432.72;4254490;27;20632;-83
2024/01/18 04:20:52;;;;;;;6.20;5.10;;;;;;;9.55;99.94;95431.94;4230128;27;21198;-81
2024/01/18 04:22:55;;;;;;;6.80;5.50;;;;;;;9.52;100.00;95435.66;4240138;27;20723;-82
2024/01/18 04:24:59;;;;;;;6.80;5.70;;;;;;;9.46;100.00;95433.72;4242913;27;20208;-82
2024/01/18 04:27:02;;;;;;;5.90;4.83;;;;;;;9.42;99.92;95453.19;4256725;27;21170;-81
2024/01/18 04:29:05;;;;;;;6.03;5.23;;;;;;;9.41;100.00;95458.56;4240756;27;20716;-81
2024/01/18 04:31:08;;;;;;;5.80;5.00;;;;;;;9.39;100.00;95437.91;4219467;27;21209;-82
2024/01/18 04:33:11;;;;;;;7.13;5.60;;;;;;;9.38;100.00;95446.72;4217994;27;20212;-82
2024/01/18 04:35:14;;;;;;;5.80;5.00;;;;;;;9.35;100.00;95446.25;4239221;27;21457;-81
2024/01/18 04:37:19;;;;;;;6.53;5.55;;;;;;;9.35;99.45;95458.41;4240453;27;20674;-81
2024/01/18 04:39:22;;;;;;;7.00;5.87;;;;;;;9.29;100.00;95446.06;4261024;27;20222;-81
2024/01/18 04:41:25;;;;;;;5.90;4.80;;;;;;;9.25;99.78;95442.97;4219937;28;20624;-81
2024/01/18 04:43:29;;;;;;;6.33;5.50;;;;;;;9.26;99.94;95443.78;4238201;27;20649;-81
2024/01/18 04:45:32;;;;;;;5.87;5.10;;;;;;;9.28;99.77;95441.84;4239352;27;20658;-81
2024/01/18 04:47:35;;;;;;;5.70;5.03;;;;;;;9.29;99.72;95452.09;4238068;27;20617;-82
2024/01/18 04:49:38;;;;;;;6.73;5.50;;;;;;;9.29;99.56;95451.25;4237460;27;20630;-81
2024/01/18 04:51:41;;;;;;;6.90;5.40;;;;;;;9.26;99.69;95449.81;4240568;27;20655;-81
2024/01/18 04:53:46;;;;;;;6.72;5.53;;;;;;;9.24;99.41;95438.72;4252143;27;20623;-82
2024/01/18 04:55:49;;;;;;;6.47;5.55;;;;;;;9.22;99.54;95448.50;4219373;27;20216;-83
2024/01/18 04:57:52;;;;;;;6.63;5.10;;;;;;;9.20;99.19;95439.22;4234143;27;20222;-81
2024/01/18 04:59:54;;;;;;;6.17;5.07;;;;;;;9.17;99.44;95437.78;4236707;27;20657;-81
2024/01/18 05:01:58;;;;;;;7.60;6.10;;;;;;;9.18;100.00;95438.56;4250854;27;21228;-81
2024/01/18 05:04:01;;;;;;;5.78;4.68;;;;;;;9.18;100.00;95441.97;4254753;27;20623;-81
2024/01/18 05:06:05;;;;;;;6.22;5.15;;;;;;;9.18;99.72;95435.97;4219472;27;20200;-81
2024/01/18 05:08:08;;;;;;;6.90;5.97;;;;;;;9.13;99.84;95433.84;4232001;27;20200;-81
2024/01/18 05:10:13;;;;;;;6.20;5.43;;;;;;;9.07;99.56;95444.09;4220940;27;20764;-81
2024/01/18 05:12:16;;;;;;;10.63;6.32;;;;;;;9.07;99.51;95428.50;4258433;27;20690;-80
2024/01/18 05:14:20;;;;;;;8.53;6.20;;;;;;;9.00;99.68;95433.50;4254717;27;20207;-82
2024/01/18 05:16:25;;;;;;;6.93;5.82;;;;;;;8.99;98.93;95429.31;4241797;27;20627;-81
2024/01/18 05:18:29;;;;;;;6.60;5.37;;;;;;;9.01;99.66;95429.94;4260204;27;20206;-81
2024/01/18 05:20:32;;;;;;;7.28;6.50;;;;;;;9.00;99.78;95432.69;4236427;27;20676;-81
2024/01/18 05:22:36;;;;;;;7.05;5.88;;;;;;;8.99;100.00;95421.50;4255266;27;21039;-81
2024/01/18 05:24:40;;;;;;;7.82;6.85;;;;;;;9.00;99.53;95422.31;4238676;27;20899;-81
2024/01/18 05:26:47;;;;;;;10.70;6.53;;;;;;;8.98;100.00;95432.88;4234890;27;20684;-82
2024/01/18 05:28:50;;;;;;;8.63;6.50;;;;;;;8.96;100.00;95427.03;4224362;27;20654;-81
2024/01/18 05:30:53;;;;;;;7.03;6.15;;;;;;;8.96;100.00;95427.03;4234737;27;20217;-81
2024/01/18 05:32:57;;;;;;;8.73;7.05;;;;;;;8.93;99.86;95442.94;4233602;27;20216;-82
2024/01/18 05:35:01;;;;;;;7.78;6.15;;;;;;;8.82;99.31;95426.03;4254924;27;20207;-82
2024/01/18 05:37:04;;;;;;;8.80;6.50;;;;;;;8.75;100.00;95440.59;4252532;27;20214;-81
2024/01/18 05:39:08;;;;;;;8.57;6.85;;;;;;;8.70;100.00;95445.47;4233585;27;20221;-81
2024/01/18 05:41:11;;;;;;;8.73;7.53;;;;;;;8.68;100.00;95445.63;4239358;27;20203;-81
2024/01/18 05:43:16;;;;;;;7.43;6.30;;;;;;;8.72;100.00;95451.31;4259142;27;20294;-82
2024/01/18 05:45:19;;;;;;;9.48;7.03;;;;;;;8.74;100.00;95450.19;4254532;27;20214;-81
2024/01/18 05:47:21;;;;;;;7.22;6.22;;;;;;;8.74;100.00;95444.19;4254325;27;20573;-81
2024/01/18 05:49:25;;;;;;;8.38;6.32;;;;;;;8.77;100.00;95439.47;4236953;27;20544;-81
2024/01/18 05:51:27;;;;;;;10.15;7.28;;;;;;;8.77;100.00;95443.88;4226027;27;20222;-81
2024/01/18 05:53:30;;;;;;;9.32;7.55;;;;;;;8.82;100.00;95444.22;4251786;27;20230;-82
2024/01/18 05:55:34;;;;;;;10.50;7.68;;;;;;;8.81;100.00;95451.19;4240105;27;20230;-81
2024/01/18 05:57:38;;;;;;;9.77;7.97;;;;;;;8.83;100.00;95451.03;4238162;27;20503;-81
2024/01/18 05:59:43;;;;;;;10.23;7.70;;;;;;;8.82;100.00;95463.19;4253198;27;20547;-81
2024/01/18 06:01:46;;;;;;;9.45;7.93;;;;;;;8.82;100.00;95462.41;4251004;27;20217;-81
2024/01/18 06:03:49;;;;;;;10.18;7.80;;;;;;;8.83;100.00;95474.44;4236894;27;20232;-81
2024/01/18 06:05:53;;;;;;;11.60;7.38;;;;;;;8.79;100.00;95468.72;4251173;27;20293;-81
2024/01/18 06:07:57;;;;;;;10.70;7.90;;;;;;;8.77;100.00;95480.25;4234794;27;20188;-82
2024/01/18 06:10:00;;;;;;;11.20;8.20;;;;;;;8.69;100.00;95490.59;4253238;27;21216;-82
2024/01/18 06:12:04;;;;;;;7.87;5.70;;;;;;;8.53;97.99;95472.38;4256123;27;20233;-81
2024/01/18 06:14:07;;;;;;;5.63;4.50;;;;;;;8.35;97.46;95471.63;4238201;27;20614;-81
2024/01/18 06:16:12;;;;;;;5.18;4.07;;;;;;;8.21;96.28;95481.78;4217060;28;20212;-82
2024/01/18 06:18:15;;;;;;;4.47;3.65;;;;;;;8.03;97.27;95468.84;4257194;27;20210;-81
2024/01/18 06:20:19;;;;;;;4.15;3.45;;;;;;;7.94;97.35;95476.75;4241106;27;20267;-81
2024/01/18 06:22:21;;;;;;;3.95;3.17;;;;;;;7.87;96.43;95470.53;4221134;27;20222;-81
2024/01/18 06:24:25;;;;;;;5.65;3.90;;;;;;;7.86;97.32;95473.28;4256454;27;20207;-81
2024/01/18 06:26:29;;;;;;;4.28;3.40;;;;;;;7.86;98.04;95473.28;4218299;27;20242;-80
2024/01/18 06:28:34;;;;;;;3.78;2.88;;;;;;;7.85;98.18;95471.63;4251206;27;20286;-81
2024/01/18 06:30:43;;;;;;;3.00;2.70;;;;;;;7.84;97.89;95464.84;4233728;27;20501;-80
2024/01/18 06:32:48;;;;;;;4.07;2.95;;;;;;;7.84;97.35;95459.66;4234705;27;20305;-82
2024/01/18 06:34:51;;;;;;;3.45;3.03;;;;;;;7.85;97.62;95471.63;4216021;28;20201;-81
2024/01/18 06:36:54;;;;;;;3.30;2.67;;;;;;;7.84;96.93;95468.25;4235401;27;20203;-81
2024/01/18 06:38:57;;;;;;;2.88;2.38;;;;;;;7.80;97.97;95466.09;4253667;27;20217;-83
2024/01/18 06:41:01;;;;;;;5.90;4.40;;;;;;;7.77;96.74;95461.22;4223647;28;20269;-82
2024/01/18 06:43:05;;;;;;;8.02;3.10;;;;;;;7.76;97.23;95460.41;4227243;27;20207;-81
2024/01/18 06:45:09;;;;;;;3.75;2.40;;;;;;;7.75;97.46;95457.97;4248306;27;20202;-81
2024/01/18 06:47:12;;;;;;;5.13;2.70;;;;;;;7.69;97.17;95459.38;4237245;27;20207;-81
2024/01/18 06:49:17;;;;;;;3.10;2.25;;;;;;;7.60;95.60;95462.09;4218726;28;20602;-81
2024/01/18 06:51:20;;;;;;;4.82;3.20;;;;;;;7.51;96.43;95462.97;4223701;28;20777;-81
2024/01/18 06:53:23;;;;;;;3.92;2.85;;;;;;;7.46;96.40;95469.56;4220720;28;20222;-81
2024/01/18 06:55:26;;;;;;;6.03;4.38;;;;;;;7.44;95.71;95464.53;4249388;27;20635;-81
2024/01/18 06:57:28;;;;;;;6.60;4.13;;;;;;;7.37;97.19;95460.13;4230478;27;20206;-81
2024/01/18 06:59:32;;;;;;;5.45;4.05;;;;;;;7.31;96.60;95453.75;4252414;27;20202;-82
2024/01/18 07:01:35;;;;;;;3.60;2.95;;;;;;;7.31;95.99;95453.75;4231760;27;20654;-81
2024/01/18 07:03:40;;;;;;;4.28;2.85;;;;;;;7.30;96.47;95448.72;4252511;27;20243;-81
2024/01/18 07:05:45;;;;;;;5.80;3.50;;;;;;;7.29;96.61;95447.91;4253090;27;20269;-81
2024/01/18 07:07:48;;;;;;;8.32;3.58;;;;;;;7.27;96.40;95449.03;4252352;27;20202;-81
2024/01/18 07:09:50;;;;;;;6.20;4.20;;;;;;;7.28;97.40;95440.28;4237677;27;21086;-81
2024/01/18 07:11:53;;;;;;;5.50;3.08;;;;;;;7.28;96.73;95446.28;4250486;27;20732;-81
2024/01/18 07:13:57;;;;;;;4.55;2.95;;;;;;;7.30;96.23;95443.53;4235689;27;20215;-81
2024/01/18 07:15:59;;;;;;;3.13;2.47;;;;;;;7.30;96.98;95448.72;4253448;27;20209;-82
2024/01/18 07:18:02;;;;;;;3.45;2.42;;;;;;;7.29;97.96;95449.69;4251280;27;20625;-83
2024/01/18 07:20:07;;;;;;;4.95;2.70;;;;;;;7.30;97.34;95449.53;4248919;27;20246;-82
2024/01/18 07:22:12;;;;;;;4.43;2.60;;;;;;;7.32;97.86;95447.63;4233023;27;20223;-83
2024/01/18 07:24:14;;;;;;;3.17;2.30;;;;;;;7.30;97.45;95444.34;4238487;27;20216;-82
2024/01/18 07:26:18;;;;;;;2.90;2.42;;;;;;;7.29;96.41;95445.31;4226182;27;20673;-82
2024/01/18 07:28:21;;;;;;;4.40;2.75;;;;;;;7.30;97.13;95451.31;4239612;27;20213;-82
2024/01/18 07:30:23;;;;;;;4.28;2.55;;;;;;;7.29;96.76;95447.91;4242254;27;20641;-82
2024/01/18 07:32:27;;;;;;;3.95;2.60;;;;;;;7.29;96.44;95452.28;4251709;27;20254;-81
2024/01/18 07:34:31;;;;;;;3.47;2.70;;;;;;;7.28;97.48;95454.06;4261822;27;20229;-81
2024/01/18 07:36:34;;;;;;;4.20;2.78;;;;;;;7.30;96.91;95446.94;4239993;27;20228;-81
2024/01/18 07:38:38;;;;;;;3.80;2.95;;;;;;;7.28;97.52;95456.66;4259754;27;20205;-81
2024/01/18 07:40:42;;;;;;;3.20;2.20;;;;;;;7.29;96.84;95447.91;4235976;27;20242;-81
2024/01/18 07:42:45;;;;;;;3.25;2.47;;;;;;;7.31;96.34;95458.13;4241582;27;20285;-81
2024/01/18 07:44:48;;;;;;;2.95;2.10;;;;;;;7.27;97.57;95451.63;4235488;27;20202;-81
2024/01/18 07:46:50;;;;;;;3.58;2.58;;;;;;;7.23;97.03;95447.69;4233590;27;20221;-81
2024/01/18 07:48:54;;;;;;;2.85;2.13;;;;;;;7.18;97.11;95445.53;4253928;27;20293;-81
2024/01/18 07:50:57;;;;;;;4.35;2.00;;;;;;;7.17;97.12;95453.47;4233606;27;20208;-84
2024/01/18 07:53:00;;;;;;;2.70;1.90;;;;;;;7.16;97.61;95455.25;4222550;27;20200;-82
2024/01/18 07:55:05;;;;;;;4.65;2.25;;;;;;;7.16;96.17;95451.84;4235024;27;20261;-83
2024/01/18 07:57:08;;;;;;;3.15;2.33;;;;;;;7.16;96.96;95462.22;4239097;27;20331;-85
2024/01/18 07:59:12;;;;;;;3.42;2.30;;;;;;;7.17;97.72;95454.28;4236969;27;20203;-83
2024/01/18 08:01:16;;;;;;;3.72;2.80;;;;;;;7.16;96.73;95455.25;4251933;27;20207;-85
2024/01/18 08:03:20;;;;;;;4.05;3.20;;;;;;;7.13;96.76;95450.38;4239293;27;20564;-84
2024/01/18 08:05:24;;;;;;;4.75;3.50;;;;;;;7.14;97.29;95458.94;4234861;27;20216;-83
2024/01/18 08:07:27;;;;;;;3.17;2.70;;;;;;;7.06;96.61;95462.28;4252732;27;20272;-82
2024/01/18 08:09:30;;;;;;;3.72;2.58;;;;;;;7.06;97.37;95454.50;4237316;27;20204;-79
2024/01/18 08:11:35;;;;;;;3.10;2.60;;;;;;;7.08;96.55;95460.38;4223935;28;20256;-83
2024/01/18 08:13:41;;;;;;;3.20;2.63;;;;;;;7.02;97.13;95451.53;4255678;27;20819;-79
2024/01/18 08:15:44;;;;;;;3.70;3.17;;;;;;;6.99;96.76;95454.44;4222669;27;20306;-83
2024/01/18 08:17:47;;;;;;;4.00;2.90;;;;;;;7.02;97.29;95457.53;4239606;27;20210;-83
2024/01/18 08:19:50;;;;;;;3.47;2.55;;;;;;;7.01;97.26;95455.13;4260508;27;20242;-83
2024/01/18 08:21:53;;;;;;;3.13;2.55;;;;;;;7.02;96.92;95459.31;4260005;27;20223;-82
2024/01/18 08:23:56;;;;;;;4.55;2.90;;;;;;;7.03;96.73;95458.38;4240180;27;20284;-82
2024/01/18 08:26:00;;;;;;;2.97;2.50;;;;;;;6.95;96.18;95460.88;4264486;27;20298;-83
2024/01/18 08:28:05;;;;;;;3.60;2.15;;;;;;;6.95;96.28;95471.25;4260581;27;20254;-82
2024/01/18 08:30:09;;;;;;;3.42;2.42;;;;;;;6.91;96.14;95467.31;4243197;27;20233;-81
2024/01/18 08:32:13;;;;;;;6.45;4.35;;;;;;;6.92;96.00;95471.53;4215751;28;20847;-81
2024/01/18 08:34:16;;;;;;;5.07;3.08;;;;;;;6.80;96.71;95477.91;4233693;27;20232;-81
2024/01/18 08:36:19;;;;;;;3.42;2.80;;;;;;;6.78;96.61;95483.22;4240717;27;20198;-82
2024/01/18 08:38:23;;;;;;;3.80;3.05;;;;;;;6.80;96.99;95490.84;4220497;27;20649;-82
2024/01/18 08:40:26;;;;;;;3.50;2.90;;;;;;;6.79;96.34;95491.78;4223760;27;20208;-81
2024/01/18 08:42:29;;;;;;;3.10;2.67;;;;;;;6.78;96.89;95496.16;4235881;27;20211;-84
2024/01/18 08:44:34;;;;;;;3.08;2.35;;;;;;;6.75;96.41;95498.22;4255645;27;20249;-85
2024/01/18 08:46:39;;;;;;;3.75;2.10;;;;;;;6.70;96.43;95505.59;4250256;27;20191;-84
2024/01/18 08:48:42;;;;;;;2.60;2.28;;;;;;;6.72;96.99;95503.69;4222732;27;20215;-84
2024/01/18 08:50:45;;;;;;;3.55;2.28;;;;;;;6.73;96.20;95502.72;4236751;27;20560;-83
2024/01/18 08:52:51;;;;;;;3.20;2.40;;;;;;;6.71;96.12;95508.06;4223954;27;20253;-83
2024/01/18 08:54:54;;;;;;;2.95;2.60;;;;;;;6.71;96.06;95502.88;4236298;27;20320;-82
2024/01/18 08:56:57;;;;;;;3.85;2.90;;;;;;;6.69;96.73;95504.81;4224186;27;20211;-83
2024/01/18 08:59:01;;;;;;;3.72;2.70;;;;;;;6.70;96.80;95510.78;4234876;27;20562;-85
2024/01/18 09:01:05;;;;;;;4.93;3.40;;;;;;;6.70;95.98;95505.59;4255286;27;20210;-86
2024/01/18 09:03:09;;;;;;;10.98;6.07;;;;;;;6.72;97.07;95508.84;4250830;27;20204;-86
2024/01/18 09:05:12;;;;;;;3.03;2.72;;;;;;;6.73;96.39;95508.72;4249801;27;20211;-85
2024/01/18 09:07:16;;;;;;;3.95;3.08;;;;;;;6.69;97.08;95520.34;4232476;27;20672;-87
2024/01/18 09:09:19;;;;;;;3.83;3.00;;;;;;;6.67;96.74;95524.81;4250540;27;20195;-83
2024/01/18 09:11:22;;;;;;;4.00;2.80;;;;;;;6.66;96.62;95515.44;4239422;27;20617;-86
2024/01/18 09:13:25;;;;;;;3.13;2.83;;;;;;;6.66;96.59;95520.63;4251091;27;20211;-87
2024/01/18 09:15:28;;;;;;;3.53;3.03;;;;;;;6.64;97.55;95521.72;4241255;27;20230;-86
2024/01/18 09:17:32;;;;;;;3.50;2.90;;;;;;;6.64;96.96;95524.31;4216354;28;20772;-87
2024/01/18 09:19:35;;;;;;;3.80;3.00;;;;;;;6.61;96.68;95533.19;4234561;27;20284;-87
2024/01/18 09:21:41;;;;;;;4.32;3.10;;;;;;;6.54;96.76;95533.91;4229413;27;20256;-86
2024/01/18 09:23:44;;;;;;;3.58;2.83;;;;;;;6.50;97.47;95545.50;4236010;27;20718;-85
2024/01/18 09:25:48;;;;;;;3.72;2.90;;;;;;;6.45;96.66;95552.88;4244279;27;20643;-86
2024/01/18 09:27:52;;;;;;;3.47;3.08;;;;;;;6.37;97.08;95555.34;4230663;27;20200;-86
2024/01/18 09:29:55;;;;;;;3.85;3.00;;;;;;;6.31;97.58;95566.25;4251637;27;20200;-86
2024/01/18 09:31:58;;;;;;;4.30;3.15;;;;;;;6.26;97.92;95568.47;4234346;27;20213;-86
2024/01/18 09:34:03;;;;;;;4.10;2.90;;;;;;;6.24;97.77;95572.97;4239584;27;20670;-86
2024/01/18 09:36:07;;;;;;;4.80;3.20;;;;;;;6.26;97.96;95578.00;4221784;28;20328;-86
2024/01/18 09:38:10;;;;;;;3.70;3.13;;;;;;;6.27;97.80;95577.03;4249900;27;20229;-87
2024/01/18 09:40:15;;;;;;;3.30;3.00;;;;;;;6.31;98.01;95586.16;4233569;27;20709;-85
2024/01/18 09:42:18;;;;;;;3.45;3.15;;;;;;;6.37;98.46;95594.16;4253167;27;20290;-87